Wetterstation

Unsere SRCA Wetterstation sendet im 15 Minuten Intervall Live-Daten vom Nordufer des Aartalsee.

Aus der folgenden Tabelle können Sie die Daten der letzten Stunden entnehmen um sich den Trend herzuleiten. Die Werte sind Rohwerte der Station auf 310m ü.NN – dies bedeutet, Sie können die Werte direkt in Ihre Formeln wie z.B. Windchill für die Temperatur oder die Höhenformel für den Luftdruck übernehmen. Weiterhin verwenden Sie zur Frage, ob die Windangaben für Ihre Segel-Bedürfnisse passen, bitte Ihre Revierkenntnisse bezgl. Topologie, Vegetation und Bebauung der Umgebung – die Zielstauhöhe der Aartalsperre im Sommer ist 268m ü.NN, ergo liegt die Wetterstation nennenswert höher.

Zeitstempel Windrichtung Windgeschwindigkeit in km/h Temperatur in °C Relative Luftfeuchtigkeit in % Luftdruck in hPa
19.07.2024 04:45 W 3.6 13.4 91.1 985.0
19.07.2024 04:30 NNW 2.8 13.3 91.6 985.1
19.07.2024 04:15 WNW 4.6 13.4 91.6 985.0
19.07.2024 04:00 WNW 7.5 13.3 91.3 985.0
19.07.2024 03:45 WNW 5.0 13.5 90.6 985.1
19.07.2024 03:30 WNW 4.3 13.7 90.0 985.3
19.07.2024 03:15 WNW 6.8 14.0 88.7 985.4
19.07.2024 03:00 WNW 3.6 14.1 88.8 985.5
19.07.2024 02:45 WNW 7.2 13.7 88.6 985.6
19.07.2024 02:30 NNW 3.6 14.4 84.4 985.7
19.07.2024 02:15 WNW 1.4 15.8 80.8 985.7
19.07.2024 02:00 NW 2.8 14.8 86.0 986.0
19.07.2024 01:45 WNW 8.6 14.9 85.3 986.0
19.07.2024 01:30 WNW 4.6 15.1 84.3 986.0
19.07.2024 01:15 NW 4.3 15.3 83.3 985.9
19.07.2024 01:00 WNW 1.8 15.7 81.4 985.7
19.07.2024 00:45 WNW 3.2 15.2 83.3 985.8
19.07.2024 00:30 NW 3.2 15.6 81.6 985.9
19.07.2024 00:15 NW 2.8 15.8 80.3 985.7
19.07.2024 00:00 ENE 0.0 17.5 73.1 985.8
18.07.2024 23:45 ENE 0.7 17.9 69.9 985.7
18.07.2024 23:30 ENE 2.1 18.0 71.5 985.8
18.07.2024 23:15 ENE 1.0 21.3 55.9 985.9
18.07.2024 23:00 ENE 0.0 21.9 55.3 985.9
18.07.2024 22:45 ENE 1.8 22.4 55.1 986.1
18.07.2024 22:30 ENE 0.7 23.2 57.0 986.0
18.07.2024 22:15 ENE 0.0 24.4 51.3 986.0
18.07.2024 22:00 ENE 0.0 25.0 49.5 986.1
18.07.2024 21:45 ENE 0.0 25.5 49.1 986.0
18.07.2024 21:30 ENE 0.0 28.4 44.1 985.9